createdAt,value
2023-02-26T00:00:15.303Z,8.30
2023-02-26T00:03:21.554Z,8.20
2023-02-26T00:06:29.740Z,7.60
2023-02-26T00:09:36.300Z,7.90
2023-02-26T00:12:43.864Z,7.80
2023-02-26T00:15:52.585Z,7.40
2023-02-26T00:19:00.405Z,8.10
2023-02-26T00:22:08.020Z,7.10
2023-02-26T00:25:14.834Z,8.20
2023-02-26T00:28:22.191Z,7.80
2023-02-26T00:31:29.241Z,7.70
2023-02-26T00:34:36.470Z,7.20
2023-02-26T00:38:03.170Z,7.20
2023-02-26T00:41:11.242Z,7.70
2023-02-26T00:44:18.705Z,8.20
2023-02-26T00:47:32.595Z,7.60
2023-02-26T00:50:44.585Z,7.40
2023-02-26T00:54:00.368Z,7.20
2023-02-26T00:57:06.900Z,6.40
2023-02-26T01:00:16.634Z,7.00
2023-02-26T01:03:23.809Z,6.90
2023-02-26T01:06:33.979Z,6.90
2023-02-26T01:09:41.318Z,7.50
2023-02-26T01:12:48.825Z,6.90
2023-02-26T01:16:04.436Z,7.40
2023-02-26T01:19:19.623Z,7.70
2023-02-26T01:22:31.083Z,7.20
2023-02-26T01:25:43.105Z,7.20
2023-02-26T01:28:50.542Z,7.70
2023-02-26T01:32:03.628Z,7.20
2023-02-26T01:35:18.035Z,7.00
2023-02-26T01:38:32.312Z,7.30
2023-02-26T01:41:44.502Z,7.30
2023-02-26T01:45:01.044Z,6.90
2023-02-26T01:48:13.071Z,6.90
2023-02-26T01:51:19.724Z,6.20
2023-02-26T01:54:27.246Z,7.00
2023-02-26T01:57:33.513Z,7.30
2023-02-26T02:00:39.854Z,7.40
2023-02-26T02:06:51.465Z,7.40
2023-02-26T02:09:57.597Z,8.30
2023-02-26T02:13:11.478Z,8.50
2023-02-26T02:16:28.977Z,8.20
2023-02-26T02:19:59.227Z,7.80
2023-02-26T02:23:12.601Z,7.80
2023-02-26T02:26:51.798Z,8.70
2023-02-26T02:30:38.409Z,8.10
2023-02-26T02:33:51.242Z,8.60
2023-02-26T02:37:01.070Z,8.60
2023-02-26T02:40:14.175Z,8.40
2023-02-26T02:43:22.525Z,8.10
2023-02-26T02:46:31.639Z,8.00
2023-02-26T02:49:44.988Z,8.10
2023-02-26T02:52:55.803Z,8.20
2023-02-26T02:56:08.885Z,8.10
2023-02-26T02:59:22.131Z,7.30
2023-02-26T03:02:35.309Z,7.50
2023-02-26T03:05:41.634Z,7.00
2023-02-26T03:11:54.144Z,7.00
2023-02-26T03:15:00.950Z,6.80
2023-02-26T03:18:17.324Z,6.70
2023-02-26T03:21:33.140Z,6.70
2023-02-26T03:24:47.326Z,6.60
2023-02-26T03:28:00.584Z,5.90
2023-02-26T03:31:13.547Z,6.20
2023-02-26T03:34:27.497Z,6.50
2023-02-26T03:37:39.978Z,6.70
2023-02-26T03:40:51.173Z,7.40
2023-02-26T03:44:01.516Z,7.60
2023-02-26T03:47:13.121Z,7.10
2023-02-26T03:50:26.670Z,8.30
2023-02-26T03:53:40.950Z,8.10
2023-02-26T03:56:49.227Z,8.30
2023-02-26T03:59:56.008Z,8.30
2023-02-26T04:03:09.261Z,9.00
2023-02-26T04:06:16.811Z,8.60
2023-02-26T04:09:23.734Z,9.10
2023-02-26T04:12:30.815Z,7.80
2023-02-26T04:15:37.482Z,7.50
2023-02-26T04:18:44.250Z,8.00
2023-02-26T04:21:50.837Z,8.30
2023-02-26T04:24:57.061Z,9.30
2023-02-26T04:28:03.312Z,9.50
2023-02-26T04:31:10.410Z,9.70
2023-02-26T04:34:16.817Z,9.70
2023-02-26T04:40:27.737Z,7.60
2023-02-26T04:43:34.415Z,8.10
2023-02-26T04:46:40.627Z,6.50
2023-02-26T04:49:46.738Z,5.10
2023-02-26T04:52:53.010Z,4.70
2023-02-26T04:59:03.734Z,4.80
2023-02-26T05:02:10.042Z,4.70
2023-02-26T05:08:20.613Z,4.20
2023-02-26T05:11:26.867Z,4.40
2023-02-26T05:17:38.529Z,3.70
2023-02-26T05:20:44.702Z,3.20
2023-02-26T05:23:51.170Z,3.30
2023-02-26T05:26:57.436Z,3.60
2023-02-26T05:30:03.882Z,3.20
2023-02-26T05:33:10.139Z,3.50
2023-02-26T05:36:16.421Z,3.60
2023-02-26T05:42:27.164Z,4.00
2023-02-26T05:45:33.410Z,4.80
2023-02-26T05:48:39.650Z,4.60
2023-02-26T05:51:45.916Z,4.30
2023-02-26T05:57:56.667Z,4.80
2023-02-26T06:01:03.140Z,3.40
2023-02-26T06:04:09.637Z,4.20
2023-02-26T06:07:16.116Z,3.80
2023-02-26T06:10:22.607Z,3.80
2023-02-26T06:13:28.860Z,3.70
2023-02-26T06:16:35.978Z,3.00
2023-02-26T06:19:42.293Z,3.30
2023-02-26T06:25:53.452Z,3.30
2023-02-26T06:28:59.716Z,3.50
2023-02-26T06:32:06.268Z,3.40
2023-02-26T06:35:13.441Z,3.80
2023-02-26T06:38:20.138Z,3.70
2023-02-26T06:41:26.501Z,3.80
2023-02-26T06:47:37.235Z,4.90
2023-02-26T06:50:43.420Z,5.00
2023-02-26T06:53:49.582Z,4.30
2023-02-26T06:56:57.810Z,4.00
2023-02-26T07:00:05.560Z,3.80
2023-02-26T07:03:14.070Z,4.20
2023-02-26T07:06:38.719Z,4.20
2023-02-26T07:09:46.114Z,3.30
2023-02-26T07:12:52.704Z,3.00
2023-02-26T07:15:58.972Z,3.50
2023-02-26T07:19:05.222Z,3.90
2023-02-26T07:25:16.584Z,2.80
2023-02-26T07:28:23.421Z,2.90
2023-02-26T07:31:29.725Z,2.90
2023-02-26T07:37:40.564Z,3.40
2023-02-26T07:43:51.488Z,3.60
2023-02-26T07:50:02.322Z,3.50
2023-02-26T07:56:13.233Z,4.00
2023-02-26T07:59:19.541Z,4.00
2023-02-26T08:05:31.105Z,4.00
2023-02-26T08:08:37.476Z,4.60
2023-02-26T08:17:56.900Z,4.00
2023-02-26T08:21:03.105Z,4.30
2023-02-26T08:24:09.793Z,3.50
2023-02-26T08:27:16.099Z,4.10
2023-02-26T08:30:22.715Z,3.90
2023-02-26T08:33:29.111Z,4.70
2023-02-26T08:39:40.871Z,4.20
2023-02-26T08:42:47.220Z,4.20
2023-02-26T08:52:04.161Z,4.20
2023-02-26T08:55:12.015Z,4.50
2023-02-26T08:58:18.397Z,4.00
2023-02-26T09:04:31.180Z,3.40
2023-02-26T09:07:37.690Z,3.80
2023-02-26T09:10:44.084Z,5.00
2023-02-26T09:13:50.367Z,5.10
2023-02-26T09:16:56.658Z,4.10
2023-02-26T09:23:07.450Z,4.90
2023-02-26T09:29:18.231Z,5.00
2023-02-26T09:32:26.424Z,5.90
2023-02-26T09:35:32.703Z,7.00
2023-02-26T09:38:39.012Z,5.10
2023-02-26T09:44:54.199Z,9.30
2023-02-26T09:48:03.109Z,6.00
2023-02-26T09:51:14.016Z,6.70
2023-02-26T09:54:24.339Z,7.20
2023-02-26T09:57:34.040Z,6.50
2023-02-26T10:00:48.890Z,8.70
2023-02-26T10:04:04.731Z,4.10
2023-02-26T10:07:22.262Z,4.30
2023-02-26T10:10:36.686Z,3.50
2023-02-26T10:13:57.286Z,4.60
2023-02-26T10:17:08.849Z,4.00
2023-02-26T10:20:21.411Z,3.40
2023-02-26T10:23:37.748Z,3.30
2023-02-26T10:26:48.970Z,3.50
2023-02-26T10:30:01.801Z,3.80
2023-02-26T10:33:20.170Z,3.70
2023-02-26T10:36:30.868Z,4.30
2023-02-26T10:39:45.743Z,4.70
2023-02-26T10:42:55.366Z,3.10
2023-02-26T10:46:11.467Z,3.40
2023-02-26T10:52:39.046Z,3.90
2023-02-26T10:55:48.383Z,3.90
2023-02-26T10:58:55.483Z,4.20
2023-02-26T11:02:02.332Z,20.00
2023-02-26T11:05:16.781Z,19.10
2023-02-26T11:08:27.715Z,13.80
2023-02-26T11:11:47.332Z,15.20
2023-02-26T11:14:54.105Z,37.20
2023-02-26T11:18:02.741Z,16.60
2023-02-26T11:21:10.280Z,24.70
2023-02-26T11:24:20.947Z,18.10
2023-02-26T11:27:31.933Z,10.80
2023-02-26T11:30:40.085Z,20.40
2023-02-26T11:33:50.739Z,9.20
2023-02-26T11:37:00.180Z,12.20
2023-02-26T11:40:16.064Z,15.30
2023-02-26T11:43:24.539Z,7.70
2023-02-26T11:46:31.192Z,4.40
2023-02-26T11:49:42.862Z,6.60
2023-02-26T11:52:55.798Z,5.00
2023-02-26T11:56:05.119Z,4.20
2023-02-26T11:59:21.019Z,7.20
2023-02-26T12:02:32.712Z,3.90
2023-02-26T12:05:39.743Z,3.90
2023-02-26T12:08:46.039Z,4.80
2023-02-26T12:15:21.888Z,6.70
2023-02-26T12:18:38.087Z,4.50
2023-02-26T12:25:17.752Z,12.00
2023-02-26T12:29:07.968Z,5.70
2023-02-26T12:32:26.941Z,3.10
2023-02-26T12:35:56.171Z,3.20
2023-02-26T12:39:16.275Z,4.90
2023-02-26T12:42:34.183Z,3.90
2023-02-26T12:45:54.216Z,3.80
2023-02-26T12:49:17.408Z,6.40
2023-02-26T12:52:42.108Z,4.30
2023-02-26T12:55:58.588Z,5.20
2023-02-26T12:59:18.113Z,6.60
2023-02-26T13:02:57.924Z,4.60
2023-02-26T13:06:27.291Z,5.90
2023-02-26T13:09:42.547Z,6.00
2023-02-26T13:13:12.473Z,5.20
2023-02-26T13:16:38.640Z,6.20
2023-02-26T13:19:49.363Z,3.50
2023-02-26T13:23:01.062Z,4.50
2023-02-26T13:26:11.021Z,5.30
2023-02-26T13:29:22.417Z,4.70
2023-02-26T13:32:30.204Z,6.10
2023-02-26T13:35:38.788Z,9.40
2023-02-26T13:39:11.422Z,9.10
2023-02-26T13:42:28.882Z,4.30
2023-02-26T13:45:47.701Z,3.60
2023-02-26T13:49:00.659Z,3.80
2023-02-26T13:52:06.990Z,4.30
2023-02-26T13:58:44.203Z,3.90
2023-02-26T14:01:55.302Z,4.30
2023-02-26T14:05:02.559Z,4.60
2023-02-26T14:08:27.658Z,5.70
2023-02-26T14:12:01.057Z,3.80
2023-02-26T14:15:41.672Z,5.90
2023-02-26T14:18:54.850Z,4.20
2023-02-26T14:22:15.983Z,4.80
2023-02-26T14:25:33.151Z,5.30
2023-02-26T14:28:47.338Z,4.80
2023-02-26T14:32:16.558Z,4.30
2023-02-26T14:35:26.691Z,4.20
2023-02-26T14:38:37.368Z,3.90
2023-02-26T14:41:44.638Z,4.30
2023-02-26T14:44:53.942Z,4.40
2023-02-26T14:48:02.658Z,4.30
2023-02-26T14:51:21.896Z,3.70
2023-02-26T14:54:50.187Z,4.50
2023-02-26T14:58:06.256Z,3.90
2023-02-26T15:01:22.079Z,29.50
2023-02-26T15:04:51.141Z,8.50
2023-02-26T15:08:14.428Z,4.20
2023-02-26T15:11:35.553Z,6.90
2023-02-26T15:15:11.310Z,8.90
2023-02-26T15:21:40.390Z,10.50
2023-02-26T15:24:47.434Z,5.20
2023-02-26T15:27:54.240Z,4.00
2023-02-26T15:31:02.306Z,3.80
2023-02-26T15:34:12.698Z,4.20
2023-02-26T15:37:28.344Z,5.80
2023-02-26T15:40:37.427Z,4.50
2023-02-26T15:43:47.812Z,4.60
2023-02-26T15:46:59.429Z,4.50
2023-02-26T15:50:06.805Z,4.80
2023-02-26T15:53:19.904Z,4.70
2023-02-26T15:56:29.639Z,4.40
2023-02-26T15:59:41.825Z,5.70
2023-02-26T16:02:50.621Z,5.70
2023-02-26T16:05:59.078Z,5.30
2023-02-26T16:09:07.689Z,5.30
2023-02-26T16:12:17.805Z,5.40
2023-02-26T16:15:31.131Z,4.90
2023-02-26T16:18:38.061Z,4.50
2023-02-26T16:21:45.050Z,5.40
2023-02-26T16:24:58.969Z,5.30
2023-02-26T16:28:08.278Z,4.30
2023-02-26T16:31:21.146Z,5.30
2023-02-26T16:34:41.618Z,4.80
2023-02-26T16:37:50.165Z,4.90
2023-02-26T16:41:03.906Z,4.50
2023-02-26T16:44:40.809Z,4.40
2023-02-26T16:47:48.693Z,4.10
2023-02-26T16:51:01.324Z,4.40
2023-02-26T16:54:10.622Z,4.60
2023-02-26T16:57:21.683Z,4.80
2023-02-26T17:00:31.294Z,4.90
2023-02-26T17:03:40.730Z,4.90
2023-02-26T17:06:48.280Z,5.40
2023-02-26T17:09:58.531Z,5.20
2023-02-26T17:13:16.510Z,6.70
2023-02-26T17:16:23.358Z,5.40
2023-02-26T17:19:29.745Z,4.30
2023-02-26T17:22:36.154Z,4.10
2023-02-26T17:25:45.478Z,5.50
2023-02-26T17:28:51.999Z,4.30
2023-02-26T17:31:58.365Z,4.60
2023-02-26T17:38:13.405Z,5.60
2023-02-26T17:41:20.974Z,5.30
2023-02-26T17:44:27.225Z,7.00
2023-02-26T17:47:40.043Z,6.50
2023-02-26T17:50:54.480Z,6.30
2023-02-26T17:54:04.688Z,6.00
2023-02-26T17:57:22.196Z,6.00
2023-02-26T18:00:31.639Z,8.60
2023-02-26T18:03:42.123Z,6.10
2023-02-26T18:06:52.624Z,7.60
2023-02-26T18:10:04.663Z,6.70
2023-02-26T18:13:24.188Z,7.80
2023-02-26T18:16:37.302Z,9.90
2023-02-26T18:19:53.423Z,7.20
2023-02-26T18:23:04.983Z,11.80
2023-02-26T18:26:18.901Z,9.30
2023-02-26T18:29:27.401Z,9.80
2023-02-26T18:32:36.818Z,8.20
2023-02-26T18:35:46.051Z,9.30
2023-02-26T18:38:52.260Z,7.20
2023-02-26T18:41:58.500Z,5.70
2023-02-26T18:45:05.149Z,8.90
2023-02-26T18:48:13.220Z,7.80
2023-02-26T18:51:19.560Z,10.50
2023-02-26T18:57:30.774Z,6.60
2023-02-26T19:00:37.103Z,7.30
2023-02-26T19:06:48.005Z,9.00
2023-02-26T19:12:59.153Z,7.40
2023-02-26T19:16:05.738Z,9.40
2023-02-26T19:19:12.954Z,7.50
2023-02-26T19:22:19.310Z,6.90
2023-02-26T19:28:33.614Z,7.20
2023-02-26T19:31:40.454Z,7.70
2023-02-26T19:34:46.952Z,7.70
2023-02-26T19:40:57.927Z,9.10
2023-02-26T19:44:04.235Z,7.50
2023-02-26T19:50:16.879Z,7.80
2023-02-26T19:53:23.215Z,9.00
2023-02-26T19:59:34.202Z,9.20
2023-02-26T20:02:40.751Z,9.50
2023-02-26T20:05:48.033Z,9.40
2023-02-26T20:08:54.462Z,10.80
2023-02-26T20:12:01.372Z,9.90
2023-02-26T20:15:09.499Z,9.50
2023-02-26T20:18:16.052Z,9.40
2023-02-26T20:21:23.497Z,11.60
2023-02-26T20:24:30.911Z,10.20
2023-02-26T20:27:37.722Z,9.70
2023-02-26T20:30:43.983Z,9.20
2023-02-26T20:33:50.143Z,8.70
2023-02-26T20:36:56.846Z,11.20
2023-02-26T20:40:05.354Z,9.40
2023-02-26T20:43:12.438Z,10.30
2023-02-26T20:46:18.837Z,10.40
2023-02-26T20:49:25.709Z,10.50
2023-02-26T20:52:32.013Z,14.70
2023-02-26T20:58:42.754Z,10.90
2023-02-26T21:01:51.389Z,12.50
2023-02-26T21:04:57.590Z,10.40
2023-02-26T21:08:04.317Z,9.70
2023-02-26T21:11:10.598Z,9.10
2023-02-26T21:14:16.839Z,9.90
2023-02-26T21:20:28.008Z,9.70
2023-02-26T21:23:34.176Z,10.80
2023-02-26T21:26:40.461Z,10.50
2023-02-26T21:32:51.929Z,10.20
2023-02-26T21:35:58.471Z,9.70
2023-02-26T21:39:05.741Z,9.80
2023-02-26T21:42:14.140Z,10.60
2023-02-26T21:45:20.591Z,11.20
2023-02-26T21:48:26.776Z,11.30
2023-02-26T21:51:32.977Z,12.70
2023-02-26T21:57:44.330Z,10.60
2023-02-26T22:00:50.709Z,9.50
2023-02-26T22:07:01.549Z,11.40
2023-02-26T22:10:10.041Z,12.00
2023-02-26T22:13:16.313Z,13.30
2023-02-26T22:16:22.972Z,9.10
2023-02-26T22:19:29.252Z,10.90
2023-02-26T22:22:35.460Z,10.70
2023-02-26T22:25:41.680Z,10.80
2023-02-26T22:28:47.969Z,10.10
2023-02-26T22:35:00.563Z,11.00
2023-02-26T22:41:11.392Z,11.40
2023-02-26T22:47:22.022Z,11.20
2023-02-26T22:50:28.168Z,11.10
2023-02-26T22:53:34.379Z,11.20
2023-02-26T22:56:40.552Z,9.70
2023-02-26T22:59:46.681Z,10.10
2023-02-26T23:02:53.508Z,10.70
2023-02-26T23:06:00.198Z,9.80
2023-02-26T23:09:07.080Z,9.70
2023-02-26T23:12:14.107Z,10.90
2023-02-26T23:15:20.416Z,10.30
2023-02-26T23:21:31.991Z,9.80
2023-02-26T23:24:38.273Z,10.00
2023-02-26T23:30:49.612Z,11.10
2023-02-26T23:37:00.453Z,11.00
2023-02-26T23:40:08.144Z,12.70
2023-02-26T23:43:14.286Z,11.70
2023-02-26T23:46:20.563Z,11.50
2023-02-26T23:52:31.417Z,11.60
2023-02-26T23:58:42.196Z,12.30
